createdAt,value
2023-04-18T05:20:54.310Z,99919.13
2023-04-18T05:31:08.331Z,99927.27
2023-04-18T05:33:35.396Z,99931.52
2023-04-18T05:36:04.774Z,99929.29
2023-04-18T05:38:31.842Z,99932.83
2023-04-18T05:40:59.889Z,99934.15
2023-04-18T05:43:26.782Z,99931.71
2023-04-18T05:45:54.290Z,99935.05
2023-04-18T05:48:24.710Z,99929.86
2023-04-18T05:50:51.825Z,99932.29
2023-04-18T05:53:18.976Z,99930.31
2023-04-18T05:55:47.996Z,99931.63
2023-04-18T05:58:19.602Z,99932.86
2023-04-18T06:39:11.470Z,99964.39
2023-04-18T06:42:47.464Z,99974.16
2023-04-18T06:45:14.066Z,99967.33
2023-04-18T06:47:41.177Z,99967.83
2023-04-18T06:50:08.858Z,99959.91
2023-04-18T06:59:36.826Z,99958.38
2023-04-18T07:02:03.767Z,99960.60
2023-04-18T07:04:31.170Z,99955.89
2023-04-18T07:06:58.413Z,99952.23
2023-04-18T07:09:26.494Z,99951.56
2023-04-18T07:11:53.620Z,99947.77
2023-04-18T07:14:25.584Z,99954.39
2023-04-18T07:16:53.161Z,99958.63
2023-04-18T07:19:20.172Z,99962.23
2023-04-18T07:21:48.516Z,99964.49
2023-04-18T07:24:27.921Z,99968.13
2023-04-18T07:26:55.252Z,99977.92
2023-04-18T07:29:22.283Z,99972.95
2023-04-18T07:31:49.386Z,99977.27
2023-04-18T07:34:33.724Z,99981.10
2023-04-18T10:10:21.220Z,100270.73
2023-04-18T10:13:15.073Z,100262.84
2023-04-18T11:14:54.153Z,100301.63
2023-04-18T11:17:26.574Z,100302.08
2023-04-18T11:20:05.677Z,100307.52
2023-04-18T11:22:33.396Z,100298.16
2023-04-18T11:25:01.034Z,100293.39
2023-04-18T11:27:31.423Z,100298.61
2023-04-18T11:29:58.197Z,100295.63
2023-04-18T11:32:25.239Z,100282.36
2023-04-18T11:34:53.456Z,100290.02
2023-04-18T11:37:20.539Z,100292.05
2023-04-18T11:39:47.289Z,100288.02
2023-04-18T11:42:14.299Z,100287.50
2023-04-18T11:44:45.271Z,100287.33
2023-04-18T11:47:24.239Z,100291.64
2023-04-18T11:50:06.077Z,100300.30
2023-04-18T11:59:19.224Z,100280.77
2023-04-18T12:01:58.891Z,100252.11
2023-04-18T12:04:51.287Z,100235.62
2023-04-18T12:07:35.683Z,100243.22
2023-04-18T12:10:26.964Z,100253.50
2023-04-18T12:12:55.657Z,100235.09
2023-04-18T12:15:27.637Z,100237.71
2023-04-18T12:18:02.986Z,100251.16
2023-04-18T12:20:38.872Z,100268.54
2023-04-18T12:23:08.240Z,100261.84
2023-04-18T12:25:39.777Z,100264.66
2023-04-18T12:28:15.121Z,100281.59
2023-04-18T12:30:44.558Z,100289.90
2023-04-18T12:33:11.013Z,100281.38
2023-04-18T12:35:37.529Z,100253.23
2023-04-18T14:14:12.454Z,100279.15
2023-04-18T14:16:40.879Z,100275.30
2023-04-18T14:19:08.254Z,100276.14
2023-04-18T14:21:36.540Z,100279.08
2023-04-18T14:24:05.010Z,100265.13
2023-04-18T14:26:32.382Z,100270.77
2023-04-18T14:29:00.002Z,100278.58
2023-04-18T14:31:27.683Z,100281.64
2023-04-18T14:33:54.677Z,100278.84
2023-04-18T14:36:21.960Z,100279.98
2023-04-18T14:38:49.668Z,100275.84
2023-04-18T14:41:16.397Z,100274.65
2023-04-18T14:43:43.098Z,100279.19
2023-04-18T14:46:15.762Z,100284.71
2023-04-18T14:48:45.097Z,100287.45
2023-04-18T14:51:15.164Z,100286.29
2023-04-18T14:53:42.188Z,100284.70
2023-04-18T14:56:09.178Z,100277.86
2023-04-18T16:54:29.671Z,100243.38
2023-04-18T16:56:56.636Z,100231.54
2023-04-18T17:16:31.177Z,100238.36
2023-04-18T17:19:01.348Z,100243.02
2023-04-18T17:21:31.200Z,100245.08
2023-04-18T17:28:23.016Z,100238.09
2023-04-18T17:34:07.243Z,100249.66
2023-04-18T17:36:35.131Z,100248.28
2023-04-18T17:39:05.762Z,100252.50
2023-04-18T17:41:37.327Z,100253.65
2023-04-18T17:44:07.787Z,100254.60
2023-04-18T18:36:03.280Z,100253.95
2023-04-18T18:38:37.598Z,100253.09
2023-04-18T18:41:05.997Z,100245.38
2023-04-18T18:43:38.967Z,100244.39
2023-04-18T18:46:09.983Z,100246.85
2023-04-18T18:48:38.696Z,100247.81
2023-04-18T18:51:06.110Z,100245.16
2023-04-18T18:53:34.011Z,100240.11
2023-04-18T18:56:01.322Z,100239.46
2023-04-18T18:58:28.864Z,100236.27
2023-04-18T19:01:00.431Z,100237.33
2023-04-18T21:08:27.224Z,100167.82
2023-04-18T21:12:04.667Z,100164.64
2023-04-18T21:15:35.060Z,100157.80
2023-04-18T21:18:05.454Z,100156.16
2023-04-18T21:20:38.536Z,100149.95
2023-04-18T21:23:05.875Z,100142.47
2023-04-18T21:25:35.584Z,100142.41
2023-04-18T21:28:03.171Z,100139.58
2023-04-18T21:30:31.093Z,100137.94
2023-04-18T21:32:58.272Z,100135.52
2023-04-18T21:35:51.978Z,100131.73
2023-04-18T21:38:30.890Z,100129.53
2023-04-18T21:41:40.580Z,100122.10
2023-04-18T21:44:09.929Z,100124.02
2023-04-18T21:46:39.264Z,100122.89
2023-04-18T21:49:08.268Z,100117.64
2023-04-18T21:51:34.927Z,100115.68
2023-04-18T21:54:02.695Z,100112.60
2023-04-18T21:56:35.586Z,100109.48
2023-04-18T21:59:52.049Z,100105.21
2023-04-18T22:02:19.320Z,100095.71
2023-04-18T22:04:47.519Z,100094.33
2023-04-18T22:07:18.047Z,100091.45
2023-04-18T22:09:50.409Z,100088.84
2023-04-18T22:12:17.792Z,100085.35
2023-04-18T22:18:42.237Z,100076.48
2023-04-18T22:22:32.047Z,100075.41
2023-04-18T22:26:12.339Z,100071.20
2023-04-18T22:37:29.562Z,100052.58
2023-04-18T22:41:11.909Z,100051.16
2023-04-18T22:45:09.511Z,100045.55
2023-04-18T22:47:57.280Z,100043.26
2023-04-18T22:50:24.233Z,100035.17
2023-04-18T22:52:51.466Z,100030.12
2023-04-18T22:55:21.038Z,100025.08
2023-04-18T22:57:48.402Z,100023.64
